To NAV CANADA Home Page Login to a new session Search on AWWS site Disclaimer Vers la page française équivalente Tips FAQ What's new on the site To the Forecasts and Observations / NOTAM section To "File a Flight Plan" website Publications and other links Update of the User's profile FIC Telephone Numbers My Weather Data Folder Route Weather Data Regional Weather Data Local Weather Data To the Forecasts and Observations / NOTAM section
Request Generated 04/24/2019 at 16:01:36 UTC . Weather information available at that time is displayed.

METAR/TAF

POWELL RIVER/BC    (show WxCam)

METAR CYPW 241600Z 28009KT 30SM FEW020 07/03 A3035 RMK CF1 CF TR SLP281=
METAR CYPW 241500Z 29010KT 30SM FEW017 06/02 A3035 RMK CF1 CF TR SLP280=
METAR CYPW 241400Z 34003KT 290V020 30SM FEW012 FEW250 05/01 A3033 RMK CU1CI1 CU TR CI TR SLP275=

CYPW - No TAF is issued for this station

Your time UTC time
Weather data provided by Environment Canada and NAV CANADA